logo
Rechercher aéroport 
image banner adimage banner adimage banner ad
image banner ad

0O9 - Ward Field

Situé à Gasquet, United States

ICAO - 0O9, IATA -

Données fournies par Airmate  

Information générale

Coordonnées: N41°50'44" W123°59'5"
Élévation : 356 feet MSL.
Variation magnétique : 18° East
Voir autres Aéroports à California

Données opérationnelles

Special qualification required
Heure actuelle UTC:
Heure actuelle locale:
Météo à : KCEC - Jack Mc Namara Field ( 22 km )
METAR: KCEC 130356Z AUTO 03004KT 1/4SM FG VV002 13/12 A2999 RMK AO2 SLP155 T01280117
TAF: KCEC 011722Z 0117/0212 19006KT 1SM BR BKN002 TEMPO 0118/0120 4SM BR SCT002 FM012000 20006KT P6SM SCT005 TEMPO 0120/0123 4SM BR BKN005 FM020100 17004KT 3SM BR BKN003 FM020300 14003KT 1SM BR OVC002
Voir NOTAMs / SUP AIP / TFR affectant cet aéroport [VIEW]
Fréquences de communication: [VIEW]

Pistes:

Identifiant RWYQFULongueur (ft)Largeur (ft)SurfaceLDA (ft)
06299050ASPH
24299050ASPH

Coordonnées de l'aéroport

Adresse: Gasquet United States

Vue satellite de 0O9